Aviation Digital Data Service (ADDS)

Output produced by METARs form (1646 UTC 20 January 2019)
found at http://www.aviationweather.gov/metar/data/
 
RPLC 201600Z 26002KT 9999 FEW020 BKN300 24/19 Q1013 NOSIG RMK A2991
TAF RPLC 201100Z 2012/2118 02006KT 9999 FEW020 BKN100 TX31/2106Z TN23/2022Z 
     TEMPO 2012/2018 35006KT SCT020 BKN100
       
RPVD 201500Z 32014KT 9999 SCT015 OVC080 26/24 Q1009 RMK A2980
TAF RPVD 201100Z 2012/2112 32010KT 9999 SCT015 BKN080 
     TEMPO 2012/2018 36012KT 8000 -RA BKN015 OVC070
       
RPMD 201600Z 00000KT 8000 -RA FEW016 BKN090 OVC290 25/25 Q1008 RMK A2977
TAF RPMD 201100Z 2012/2112 02007KT 9999 FEW016 BKN090 BKN290 
     TEMPO 2012/2018 35008KT -SHRA SCT016 BKN090 OVC290
       
RPLI 201500Z 07005KT 050V150 9999 FEW018 25/20 Q1012 NOSIG RMK A2988
TAF RPLI 201100Z 2012/2112 04008KT 9999 FEW018 SCT100 
     TEMPO 2012/2018 34006KT FEW018 BKN100
       
RPVM 201600Z 01004KT 9999 FEW020 OVC090 26/23 Q1008 NOSIG RMK A2977
TAF RPVM 201100Z 2012/2118 01012KT 9999 FEW020 OVC090 
     TEMPO 2012/2018 02014G25KT 8000 -RA SCT020 OVC090 
     TEMPO 2018/2024 36014KT 7000 -RA SCT020 OVC080
       
RPLL 201600Z VRB02KT 9999 FEW025 SCT090 26/21 Q1012 NOSIG RMK A2988
TAF RPLL 201100Z 2012/2118 09008KT 9999 FEW025 SCT100 TX31/2106Z TN25/2021Z 
     TEMPO 2012/2018 07012KT SCT025 BKN300 
     TEMPO 2018/2024 34010KT FEW025 BKN100
       
RPVP 201500Z 29004KT 9999 FEW019 BKN080 27/23 Q1011 RMK A2985
TAF RPVP 201100Z 2012/2112 29010KT 9999 FEW019 SCT080 
     TEMPO 2012/2018 25014KT FEW019 BKN080
       
RPLB 201600Z 00000KT 9999 FEW020 SCT300 23/20 Q1013 NOSIG RMK A2991
TAF RPLB 201100Z 2012/2112 08008KT 9999 FEW020 SCT080 BKN300 TX31/2106Z
TN21/2022Z 
     TEMPO 2012/2018 10012KT FEW018 BKN080
       
TAF RPMR 201100Z 2012/2112 22008KT 9999 FEW018 BKN080 
     TEMPO 2012/2018 34006KT SCT018 OVC080
       
RPMZ 201500Z VRB01KT 9999 FEW017 BKN090 26/23 Q1009 RMK A2980
TAF RPMZ 201100Z 2012/2112 32006KT 9999 FEW017 BKN090 
     TEMPO 2012/2018 29008KT SCT017 OVC090